Time;durP1;ratioP1;P1;durP2;ratioP2;P2;SDS_P1;SDS_P2;PMS_P1;PMS_P2;Temp;Humidity;BMP_temperature;BMP_pressure;BME280_temperature;BME280_humidity;BME280_pressure;Samples;Min_cycle;Max_cycle;Signal;HPM_P1;HPM_P2
2023/01/20 00:01:15;;;;;;;11.50;9.60;;;0.60;99.90;;;;;;5029365;28;20415;-78
2023/01/20 00:03:44;;;;;;;11.65;10.13;;;0.60;99.90;;;;;;5029915;28;20415;-78
2023/01/20 00:06:11;;;;;;;11.65;10.20;;;0.50;99.90;;;;;;5029382;28;20419;-77
2023/01/20 00:08:39;;;;;;;12.65;10.77;;;0.60;99.90;;;;;;5042129;28;20433;-78
2023/01/20 00:11:07;;;;;;;12.48;10.55;;;0.60;99.90;;;;;;5034784;28;20442;-77
2023/01/20 00:13:33;;;;;;;11.77;10.30;;;0.60;99.90;;;;;;5041618;28;20434;-77
2023/01/20 00:16:02;;;;;;;12.43;10.90;;;0.70;99.90;;;;;;5043870;28;20403;-78
2023/01/20 00:18:29;;;;;;;13.13;10.57;;;0.80;99.90;;;;;;5043088;28;20419;-79
2023/01/20 00:21:01;;;;;;;11.38;10.20;;;0.80;99.90;;;;;;5035404;28;20419;-78
2023/01/20 00:23:28;;;;;;;11.10;9.90;;;0.80;99.90;;;;;;5032172;28;20434;-77
2023/01/20 00:25:54;;;;;;;12.00;10.80;;;0.80;99.90;;;;;;5035241;28;20963;-76
2023/01/20 00:28:21;;;;;;;13.10;10.60;;;0.90;99.90;;;;;;5036496;28;20472;-79
2023/01/20 00:30:52;;;;;;;11.45;10.25;;;0.90;99.90;;;;;;5028801;28;20906;-78
2023/01/20 00:33:19;;;;;;;12.20;11.00;;;0.90;99.90;;;;;;5048492;28;20421;-77
2023/01/20 00:35:45;;;;;;;11.60;10.40;;;0.90;99.90;;;;;;5037229;28;20418;-77
2023/01/20 00:38:14;;;;;;;11.55;9.90;;;0.90;99.90;;;;;;5031883;28;20434;-78
2023/01/20 00:40:41;;;;;;;12.48;10.98;;;0.80;99.90;;;;;;5036940;28;20415;-78
2023/01/20 00:43:08;;;;;;;12.73;11.35;;;0.70;99.90;;;;;;5032922;28;20422;-77
2023/01/20 00:45:34;;;;;;;13.15;10.80;;;0.80;99.90;;;;;;5029774;28;21057;-78
2023/01/20 00:48:01;;;;;;;13.85;10.80;;;0.80;99.90;;;;;;5030571;28;20415;-77
2023/01/20 00:50:28;;;;;;;13.68;11.60;;;0.80;99.90;;;;;;5030102;28;20509;-77
2023/01/20 00:52:54;;;;;;;12.55;11.25;;;0.80;99.90;;;;;;5030624;28;20518;-77
2023/01/20 00:55:23;;;;;;;16.02;11.82;;;0.80;99.90;;;;;;5045892;28;20439;-77
2023/01/20 00:57:49;;;;;;;13.90;11.02;;;0.70;99.90;;;;;;5050636;28;20425;-76
2023/01/20 01:00:18;;;;;;;14.10;11.13;;;0.70;99.90;;;;;;5033200;28;20419;-76
2023/01/20 01:02:44;;;;;;;12.70;11.40;;;0.70;99.90;;;;;;5031676;28;20441;-77
2023/01/20 01:05:11;;;;;;;13.52;11.27;;;0.70;99.90;;;;;;5029054;28;20454;-78
2023/01/20 01:07:38;;;;;;;13.88;12.40;;;0.60;99.90;;;;;;5032493;28;20418;-76
2023/01/20 01:10:05;;;;;;;14.50;11.10;;;0.60;99.90;;;;;;5031587;28;20423;-78
2023/01/20 01:12:33;;;;;;;13.90;11.82;;;0.50;99.90;;;;;;5028986;28;20419;-75
2023/01/20 01:15:01;;;;;;;13.32;11.52;;;0.50;99.90;;;;;;5030791;28;20739;-76
2023/01/20 01:17:28;;;;;;;13.27;11.82;;;0.50;99.90;;;;;;5033103;28;20419;-76
2023/01/20 01:19:54;;;;;;;13.27;10.97;;;0.50;99.90;;;;;;5049436;28;20452;-79
2023/01/20 01:22:22;;;;;;;15.93;11.52;;;0.50;99.90;;;;;;5045735;28;20445;-77
2023/01/20 01:24:48;;;;;;;13.60;11.60;;;0.50;99.90;;;;;;5046750;28;20889;-76
2023/01/20 01:27:15;;;;;;;13.25;11.85;;;0.40;99.90;;;;;;5046649;28;20419;-77
2023/01/20 01:29:43;;;;;;;14.02;11.55;;;0.50;99.90;;;;;;5046704;28;20423;-79
2023/01/20 01:32:10;;;;;;;13.43;11.80;;;0.50;99.90;;;;;;5036354;28;20482;-78
2023/01/20 01:34:38;;;;;;;12.75;11.45;;;0.50;99.90;;;;;;5032296;28;20461;-78
2023/01/20 01:37:04;;;;;;;14.25;11.88;;;0.30;99.90;;;;;;5031587;28;20411;-77
2023/01/20 01:39:31;;;;;;;12.75;11.45;;;0.20;99.90;;;;;;5030660;28;20431;-77
2023/01/20 01:41:58;;;;;;;13.45;11.43;;;0.10;99.90;;;;;;5031269;28;20415;-77
2023/01/20 01:44:26;;;;;;;13.88;11.75;;;0.00;99.90;;;;;;5030415;28;20483;-78
2023/01/20 01:46:54;;;;;;;12.40;11.10;;;0.00;99.90;;;;;;5031208;28;20904;-76
2023/01/20 01:49:24;;;;;;;14.30;12.40;;;-0.20;99.90;;;;;;5024821;28;20441;-77
2023/01/20 01:51:58;;;;;;;13.80;12.32;;;-0.20;99.90;;;;;;5030356;28;20423;-79
2023/01/20 01:54:28;;;;;;;15.73;12.45;;;-0.20;99.90;;;;;;5031081;28;20446;-77
2023/01/20 01:56:55;;;;;;;15.95;12.15;;;-0.20;99.90;;;;;;5030379;28;20427;-78
2023/01/20 01:59:22;;;;;;;15.73;11.88;;;-0.20;99.90;;;;;;5028536;28;20427;-77
2023/01/20 02:01:51;;;;;;;14.70;12.52;;;-0.20;99.90;;;;;;5030266;28;20419;-77
2023/01/20 02:04:22;;;;;;;13.73;12.20;;;-0.30;99.90;;;;;;5023710;28;20426;-77
2023/01/20 02:06:51;;;;;;;15.88;12.73;;;-0.20;99.90;;;;;;5029993;28;20442;-77
2023/01/20 02:09:18;;;;;;;14.85;12.48;;;-0.20;99.90;;;;;;5029802;28;20423;-76
2023/01/20 02:11:49;;;;;;;13.52;11.55;;;-0.10;99.90;;;;;;5030044;28;20886;-77
2023/01/20 02:14:17;;;;;;;13.65;12.20;;;-0.20;99.90;;;;;;5029773;28;20425;-77
2023/01/20 02:16:56;;;;;;;16.00;11.75;;;-0.20;99.90;;;;;;5032143;28;20431;-77
2023/01/20 02:19:59;;;;;;;14.20;12.70;;;-0.10;99.90;;;;;;5023655;28;20430;-78
2023/01/20 02:22:35;;;;;;;14.60;12.23;;;-0.10;99.90;;;;;;5028832;28;20872;-76
2023/01/20 02:25:39;;;;;;;14.85;12.73;;;-0.20;99.90;;;;;;5031169;28;20431;-77
2023/01/20 02:28:36;;;;;;;12.60;11.30;;;-0.30;99.90;;;;;;5028238;28;20885;-76
2023/01/20 02:31:44;;;;;;;13.73;11.57;;;-0.30;99.90;;;;;;5026723;28;20426;-77
2023/01/20 02:34:16;;;;;;;13.30;11.90;;;-0.50;99.90;;;;;;5028427;28;20873;-76
2023/01/20 02:36:47;;;;;;;15.45;13.52;;;-0.50;99.90;;;;;;5028233;28;20429;-77
2023/01/20 02:39:19;;;;;;;16.67;13.20;;;-0.50;99.90;;;;;;5028726;28;20510;-75
2023/01/20 02:41:56;;;;;;;14.45;12.13;;;-0.50;99.90;;;;;;5038359;28;20752;-76
2023/01/20 02:44:31;;;;;;;16.40;12.60;;;-0.60;99.90;;;;;;5046019;28;20508;-77
2023/01/20 02:47:02;;;;;;;15.40;12.20;;;-0.70;99.90;;;;;;5027829;28;20953;-77
2023/01/20 02:49:35;;;;;;;15.63;12.98;;;-0.80;99.90;;;;;;5029121;28;20473;-78
2023/01/20 02:52:09;;;;;;;15.85;12.60;;;-0.80;99.90;;;;;;5029079;28;20426;-77
2023/01/20 02:54:39;;;;;;;15.95;12.50;;;-0.80;99.90;;;;;;5028855;28;20429;-78
2023/01/20 02:57:09;;;;;;;16.30;12.75;;;-0.90;99.90;;;;;;5030944;28;20423;-77
2023/01/20 02:59:41;;;;;;;15.10;13.30;;;-0.80;99.90;;;;;;5029666;28;20509;-78
2023/01/20 03:02:13;;;;;;;15.15;13.05;;;-0.80;99.90;;;;;;5026359;28;20462;-77
2023/01/20 03:04:47;;;;;;;16.55;13.40;;;-0.80;99.90;;;;;;5028878;28;20423;-77
2023/01/20 03:07:15;;;;;;;15.10;13.20;;;-0.70;99.90;;;;;;5028111;28;20419;-78
2023/01/20 03:09:47;;;;;;;16.42;13.68;;;-0.60;99.90;;;;;;5028509;28;20430;-77
2023/01/20 03:12:21;;;;;;;18.13;13.95;;;-0.60;99.90;;;;;;5026146;28;20426;-78
2023/01/20 03:14:47;;;;;;;15.52;13.35;;;-0.60;99.90;;;;;;5026521;28;21815;-78
2023/01/20 03:17:14;;;;;;;15.00;12.40;;;-0.50;99.90;;;;;;5027891;28;20426;-78
2023/01/20 03:19:43;;;;;;;16.00;12.55;;;-0.50;99.90;;;;;;5028478;28;20422;-77
2023/01/20 03:22:09;;;;;;;16.13;13.20;;;-0.50;99.90;;;;;;5027284;28;20418;-77
2023/01/20 03:24:38;;;;;;;15.15;12.95;;;-0.50;99.90;;;;;;5028051;28;20449;-77
2023/01/20 03:27:05;;;;;;;17.52;13.38;;;-0.50;99.90;;;;;;5027488;28;20490;-79
2023/01/20 03:29:32;;;;;;;16.45;12.55;;;-0.60;99.90;;;;;;5027726;28;20446;-79
2023/01/20 03:32:01;;;;;;;13.95;12.10;;;-0.60;99.90;;;;;;5028275;28;20434;-76
2023/01/20 03:34:31;;;;;;;15.32;13.73;;;-0.60;99.90;;;;;;5027602;28;20415;-77
2023/01/20 03:37:00;;;;;;;16.92;14.38;;;-0.60;99.90;;;;;;5028043;28;20426;-76
2023/01/20 03:39:28;;;;;;;16.60;13.65;;;-0.50;99.90;;;;;;5028357;28;20514;-77
2023/01/20 03:42:04;;;;;;;17.40;14.10;;;-0.40;99.90;;;;;;5026787;28;21092;-78
2023/01/20 03:44:39;;;;;;;17.33;14.07;;;-0.30;99.90;;;;;;5027101;28;20450;-79
2023/01/20 03:47:10;;;;;;;17.23;13.70;;;-0.30;99.90;;;;;;5027149;28;20457;-77
2023/01/20 03:49:45;;;;;;;15.77;13.57;;;-0.20;99.90;;;;;;5029162;28;20766;-78
2023/01/20 03:52:22;;;;;;;14.65;13.02;;;-0.20;99.90;;;;;;5027667;28;20426;-77
2023/01/20 03:54:53;;;;;;;14.68;12.77;;;-0.10;99.90;;;;;;5029543;28;20422;-77
2023/01/20 03:57:25;;;;;;;18.83;13.63;;;-0.10;99.90;;;;;;5027739;28;20435;-77
2023/01/20 03:59:53;;;;;;;16.85;13.88;;;-0.10;99.90;;;;;;5028301;28;20826;-77
2023/01/20 04:02:20;;;;;;;16.00;13.00;;;-0.10;99.90;;;;;;5027507;28;20480;-75
2023/01/20 04:04:49;;;;;;;15.48;13.32;;;0.00;99.90;;;;;;5028761;28;20419;-77
2023/01/20 04:07:23;;;;;;;16.98;13.38;;;-0.10;99.90;;;;;;5027698;28;20430;-79
2023/01/20 04:09:53;;;;;;;17.35;13.30;;;0.00;99.90;;;;;;5031665;28;20415;-79
2023/01/20 04:12:20;;;;;;;16.30;13.52;;;0.00;99.90;;;;;;5050496;28;20508;-77
2023/01/20 04:14:46;;;;;;;15.43;13.57;;;0.10;99.90;;;;;;5043193;28;20443;-78
2023/01/20 04:17:13;;;;;;;16.27;13.30;;;0.20;99.90;;;;;;5043563;28;20433;-79
2023/01/20 04:19:40;;;;;;;14.77;12.75;;;0.30;99.90;;;;;;5042781;28;20411;-78
2023/01/20 04:22:16;;;;;;;14.88;13.13;;;0.40;99.90;;;;;;5052462;28;20425;-79
2023/01/20 04:24:52;;;;;;;16.65;13.65;;;0.50;99.90;;;;;;5055788;28;20419;-78
2023/01/20 04:27:19;;;;;;;16.10;13.00;;;0.60;99.90;;;;;;5038377;28;20423;-78
2023/01/20 04:29:46;;;;;;;13.43;12.02;;;0.70;99.90;;;;;;5041140;28;20415;-78
2023/01/20 04:32:13;;;;;;;14.43;12.60;;;0.80;99.90;;;;;;5037648;28;20406;-78
2023/01/20 04:34:40;;;;;;;14.50;13.00;;;0.80;99.90;;;;;;5035168;28;20418;-77
2023/01/20 04:37:07;;;;;;;16.25;13.45;;;0.90;99.90;;;;;;5031904;28;20419;-77
2023/01/20 04:39:33;;;;;;;13.83;12.13;;;1.00;99.90;;;;;;5037815;28;20429;-78
2023/01/20 04:42:01;;;;;;;13.82;12.32;;;1.10;99.90;;;;;;5029058;28;20454;-78
2023/01/20 04:44:28;;;;;;;14.10;12.65;;;1.10;99.90;;;;;;5026833;28;20438;-78
2023/01/20 04:46:57;;;;;;;14.18;12.68;;;1.10;99.90;;;;;;5027616;28;20461;-78
2023/01/20 04:49:23;;;;;;;13.98;12.48;;;1.10;99.90;;;;;;5031917;28;20438;-79
2023/01/20 04:51:50;;;;;;;14.10;12.60;;;1.20;99.90;;;;;;5045357;28;20415;-78
2023/01/20 04:54:17;;;;;;;14.70;13.00;;;1.20;99.90;;;;;;5040914;28;20456;-78
2023/01/20 04:56:44;;;;;;;17.98;13.20;;;1.20;99.90;;;;;;5041050;28;20418;-78
2023/01/20 04:59:12;;;;;;;13.63;12.18;;;1.20;99.90;;;;;;5039373;28;20418;-77
2023/01/20 05:01:38;;;;;;;13.70;12.30;;;1.30;99.90;;;;;;5032957;28;20430;-78
2023/01/20 05:04:05;;;;;;;13.52;12.23;;;1.30;99.90;;;;;;5030759;28;20411;-79
2023/01/20 05:06:32;;;;;;;14.30;12.80;;;1.30;99.90;;;;;;5031065;28;20430;-77
2023/01/20 05:08:58;;;;;;;13.85;12.45;;;1.40;99.90;;;;;;5023896;28;20935;-79
2023/01/20 05:11:25;;;;;;;14.00;12.60;;;1.40;99.90;;;;;;5028311;28;20442;-77
2023/01/20 05:13:52;;;;;;;13.77;12.27;;;1.40;99.90;;;;;;5023390;28;20960;-77
2023/01/20 05:16:23;;;;;;;16.30;12.55;;;1.40;99.90;;;;;;5024965;28;20932;-77
2023/01/20 05:18:50;;;;;;;13.93;12.43;;;1.40;99.90;;;;;;5036163;28;20427;-78
2023/01/20 05:21:17;;;;;;;14.15;12.65;;;1.40;99.90;;;;;;5048105;28;20796;-78
2023/01/20 05:23:44;;;;;;;14.57;13.00;;;1.40;99.90;;;;;;5046036;28;20412;-77
2023/01/20 05:26:11;;;;;;;13.10;11.80;;;1.40;99.90;;;;;;5047495;28;20449;-77
2023/01/20 05:28:38;;;;;;;12.77;11.57;;;1.40;99.90;;;;;;5056683;28;20432;-78
2023/01/20 05:31:04;;;;;;;12.25;10.95;;;1.40;99.90;;;;;;5039152;28;20419;-78
2023/01/20 05:33:32;;;;;;;12.13;10.90;;;1.40;99.90;;;;;;5042702;28;20423;-78
2023/01/20 05:35:59;;;;;;;12.40;11.10;;;1.40;99.90;;;;;;5042467;28;20495;-78
2023/01/20 05:38:26;;;;;;;11.63;10.43;;;1.40;99.90;;;;;;5041248;28;20423;-78
2023/01/20 05:40:59;;;;;;;14.45;11.50;;;1.40;99.90;;;;;;5038667;28;20414;-77
2023/01/20 05:43:26;;;;;;;14.18;11.38;;;1.40;99.90;;;;;;5030827;28;20537;-76
2023/01/20 05:45:53;;;;;;;11.77;10.38;;;1.50;99.90;;;;;;5030598;28;20430;-75
2023/01/20 05:48:20;;;;;;;11.87;10.67;;;1.50;99.90;;;;;;5031306;28;21063;-76
2023/01/20 05:50:48;;;;;;;11.73;10.52;;;1.50;99.90;;;;;;5027542;28;20893;-77
2023/01/20 05:53:16;;;;;;;11.20;10.07;;;1.50;99.90;;;;;;5030952;28;20422;-77
2023/01/20 05:55:43;;;;;;;10.40;9.07;;;1.40;99.90;;;;;;5029140;28;20527;-76
2023/01/20 05:58:10;;;;;;;9.02;8.13;;;1.50;99.90;;;;;;5034271;28;20433;-78
2023/01/20 06:00:38;;;;;;;9.63;8.68;;;1.50;99.90;;;;;;5046933;28;20425;-77
2023/01/20 06:03:05;;;;;;;9.55;8.55;;;1.50;99.90;;;;;;5046610;28;20814;-77
2023/01/20 06:05:32;;;;;;;9.77;8.63;;;1.50;99.90;;;;;;5045037;28;20415;-79
2023/01/20 06:08:01;;;;;;;10.48;8.93;;;1.50;99.90;;;;;;5038909;28;20431;-80
2023/01/20 06:10:28;;;;;;;9.27;8.02;;;1.50;99.90;;;;;;5031344;28;20456;-78
2023/01/20 06:12:55;;;;;;;9.32;8.43;;;1.60;99.90;;;;;;5038484;28;20437;-78
2023/01/20 06:15:23;;;;;;;10.18;8.68;;;1.60;99.90;;;;;;5031432;28;20497;-79
2023/01/20 06:17:50;;;;;;;9.32;8.30;;;1.60;99.90;;;;;;5030149;28;20479;-75
2023/01/20 06:20:17;;;;;;;9.00;8.10;;;1.50;99.90;;;;;;5026933;28;20450;-76
2023/01/20 06:22:44;;;;;;;10.07;7.97;;;1.50;99.90;;;;;;5027499;28;20447;-78
2023/01/20 06:25:12;;;;;;;8.65;7.75;;;1.50;99.90;;;;;;5025257;28;20444;-79
2023/01/20 06:27:42;;;;;;;9.02;8.13;;;1.50;99.90;;;;;;5023525;28;20437;-80
2023/01/20 06:30:10;;;;;;;8.65;7.82;;;1.50;99.90;;;;;;5020376;28;20434;-78
2023/01/20 06:32:37;;;;;;;9.93;9.00;;;1.50;99.90;;;;;;5027451;28;20629;-77
2023/01/20 06:35:04;;;;;;;9.40;8.47;;;1.50;99.90;;;;;;5026428;28;20922;-76
2023/01/20 06:37:31;;;;;;;8.90;8.10;;;1.50;99.90;;;;;;5027143;28;20443;-79
2023/01/20 06:39:57;;;;;;;9.43;7.47;;;1.50;99.90;;;;;;5028544;28;20445;-79
2023/01/20 06:42:26;;;;;;;9.63;8.32;;;1.60;99.90;;;;;;5026584;28;21251;-78
2023/01/20 06:44:52;;;;;;;8.60;7.75;;;1.60;99.90;;;;;;5028409;28;20458;-78
2023/01/20 06:47:19;;;;;;;9.35;8.35;;;1.50;99.90;;;;;;5026961;28;20435;-79
2023/01/20 06:49:46;;;;;;;9.10;8.20;;;1.50;99.90;;;;;;5026195;28;20457;-78
2023/01/20 06:52:13;;;;;;;8.30;7.50;;;1.50;99.90;;;;;;5025110;28;20829;-79
2023/01/20 06:54:39;;;;;;;8.35;7.30;;;1.60;99.90;;;;;;5025861;28;20435;-79
2023/01/20 06:57:06;;;;;;;8.88;7.97;;;1.50;99.90;;;;;;5028803;28;20427;-80
2023/01/20 06:59:34;;;;;;;8.80;8.00;;;1.50;99.90;;;;;;5022719;28;20432;-78
2023/01/20 07:02:01;;;;;;;8.80;7.90;;;1.60;99.90;;;;;;5020198;28;20433;-79
2023/01/20 07:04:28;;;;;;;8.50;7.60;;;1.50;99.90;;;;;;5020130;28;20466;-80
2023/01/20 07:06:55;;;;;;;8.63;7.72;;;1.50;99.90;;;;;;5026347;28;20451;-79
2023/01/20 07:09:22;;;;;;;8.57;7.20;;;1.50;99.90;;;;;;5017802;28;20447;-79
2023/01/20 07:11:49;;;;;;;8.38;7.22;;;1.40;99.90;;;;;;5023017;28;20462;-80
2023/01/20 07:14:16;;;;;;;7.70;6.50;;;1.50;99.90;;;;;;5025958;28;20442;-79
2023/01/20 07:16:44;;;;;;;7.53;6.82;;;1.50;99.90;;;;;;5027674;28;20419;-77
2023/01/20 07:19:12;;;;;;;8.85;6.57;;;1.40;99.90;;;;;;5027520;28;21111;-79
2023/01/20 07:21:38;;;;;;;7.63;6.67;;;1.40;99.90;;;;;;5026757;28;20435;-80
2023/01/20 07:24:06;;;;;;;7.60;6.90;;;1.50;99.20;;;;;;5028080;28;20411;-80
2023/01/20 07:26:33;;;;;;;6.97;6.25;;;1.50;99.00;;;;;;5028834;28;20763;-79
2023/01/20 07:29:00;;;;;;;7.70;6.28;;;1.50;98.70;;;;;;5029209;28;20426;-80
2023/01/20 07:31:30;;;;;;;7.55;6.20;;;1.40;99.10;;;;;;5024749;28;20443;-80
2023/01/20 07:33:58;;;;;;;8.77;7.88;;;1.40;99.70;;;;;;5026117;28;20779;-79
2023/01/20 07:36:26;;;;;;;8.05;6.90;;;1.30;99.90;;;;;;5028617;28;20485;-78
2023/01/20 07:38:53;;;;;;;7.70;6.10;;;1.40;99.90;;;;;;5023515;28;20454;-79
2023/01/20 07:41:21;;;;;;;6.73;6.13;;;1.40;99.50;;;;;;5020135;28;20992;-79
2023/01/20 07:43:49;;;;;;;6.85;6.15;;;1.40;98.70;;;;;;5017961;28;20443;-78
2023/01/20 07:46:17;;;;;;;7.32;6.55;;;1.30;98.30;;;;;;5027501;28;20462;-79
2023/01/20 07:48:44;;;;;;;7.55;6.72;;;1.30;98.10;;;;;;5025227;28;20886;-78
2023/01/20 07:51:14;;;;;;;7.68;6.80;;;1.30;98.40;;;;;;5023896;28;20445;-78
2023/01/20 07:53:45;;;;;;;7.45;6.20;;;1.40;98.10;;;;;;5025023;28;20920;-78
2023/01/20 07:56:13;;;;;;;7.32;6.35;;;1.30;97.90;;;;;;5026714;28;20434;-78
2023/01/20 07:58:40;;;;;;;8.23;6.33;;;1.40;97.90;;;;;;5021538;28;20820;-77
2023/01/20 08:01:08;;;;;;;7.28;6.57;;;1.30;97.50;;;;;;5025715;28;20443;-78
2023/01/20 08:03:35;;;;;;;7.68;6.13;;;1.40;97.60;;;;;;5027249;28;20463;-79
2023/01/20 08:06:03;;;;;;;7.28;6.18;;;1.40;97.80;;;;;;5026707;28;20435;-79
2023/01/20 08:08:31;;;;;;;7.50;6.80;;;1.40;97.70;;;;;;5027453;28;20439;-78
2023/01/20 08:11:00;;;;;;;7.32;6.30;;;1.50;97.80;;;;;;5025774;28;20439;-78
2023/01/20 08:13:27;;;;;;;7.20;6.40;;;1.50;98.10;;;;;;5023781;28;20435;-78
2023/01/20 08:15:53;;;;;;;8.47;6.70;;;1.50;97.60;;;;;;5024459;28;20545;-78
2023/01/20 08:18:20;;;;;;;10.63;6.90;;;1.50;97.70;;;;;;5021673;28;21012;-78
2023/01/20 08:20:47;;;;;;;8.73;6.50;;;1.50;97.90;;;;;;5026984;28;20419;-78
2023/01/20 08:23:14;;;;;;;7.28;6.30;;;1.50;97.40;;;;;;5028746;28;20458;-78
2023/01/20 08:25:42;;;;;;;7.97;6.60;;;1.50;97.50;;;;;;5032303;28;20426;-79
2023/01/20 08:28:09;;;;;;;8.43;6.50;;;1.50;97.60;;;;;;5024196;28;20798;-77
2023/01/20 08:30:35;;;;;;;7.15;6.45;;;1.50;97.30;;;;;;5024621;28;20427;-78
2023/01/20 08:33:02;;;;;;;7.13;6.22;;;1.50;97.10;;;;;;5025934;28;20543;-78
2023/01/20 08:35:29;;;;;;;7.78;6.35;;;1.50;96.80;;;;;;5035659;28;20524;-79
2023/01/20 08:37:58;;;;;;;8.80;6.10;;;1.60;97.30;;;;;;5046288;28;20411;-79
2023/01/20 08:40:25;;;;;;;7.88;6.60;;;1.50;97.30;;;;;;5040839;28;20446;-79
2023/01/20 08:42:53;;;;;;;7.05;6.28;;;1.50;97.10;;;;;;5044030;28;20419;-78
2023/01/20 08:45:19;;;;;;;8.57;6.53;;;1.50;97.00;;;;;;5040576;28;20472;-79
2023/01/20 08:47:46;;;;;;;7.28;6.57;;;1.50;97.20;;;;;;5040007;28;20427;-78
2023/01/20 08:50:16;;;;;;;8.18;6.75;;;1.60;97.50;;;;;;5041263;28;20461;-78
2023/01/20 08:52:53;;;;;;;7.30;6.50;;;1.70;96.80;;;;;;5037127;28;20411;-78
2023/01/20 08:55:19;;;;;;;7.32;6.32;;;1.80;96.70;;;;;;5042917;28;20442;-79
2023/01/20 08:57:46;;;;;;;7.15;6.50;;;2.00;96.90;;;;;;5046832;28;20439;-78
2023/01/20 09:00:18;;;;;;;7.10;6.40;;;2.20;96.10;;;;;;5048473;28;20435;-77
2023/01/20 09:02:44;;;;;;;8.40;6.43;;;2.40;94.90;;;;;;5041813;28;20419;-77
2023/01/20 09:05:12;;;;;;;7.22;6.50;;;2.60;94.80;;;;;;5047835;28;20423;-77
2023/01/20 09:07:39;;;;;;;6.95;5.97;;;2.80;93.50;;;;;;5039326;28;20787;-77
2023/01/20 09:10:07;;;;;;;7.97;6.35;;;2.80;92.90;;;;;;5047146;28;20439;-77
2023/01/20 09:12:34;;;;;;;7.80;6.65;;;2.80;92.80;;;;;;5035940;28;20434;-76
2023/01/20 09:15:01;;;;;;;7.50;6.20;;;2.80;92.80;;;;;;5030309;28;20488;-76
2023/01/20 09:17:29;;;;;;;7.20;6.00;;;2.90;92.90;;;;;;5026614;28;20441;-77
2023/01/20 09:19:55;;;;;;;7.35;6.65;;;3.20;92.80;;;;;;5030826;28;20439;-77
2023/01/20 09:22:22;;;;;;;7.68;6.53;;;3.40;90.80;;;;;;5034722;28;20417;-77
2023/01/20 09:24:49;;;;;;;7.90;7.03;;;3.60;90.60;;;;;;5038915;28;20483;-77
2023/01/20 09:27:16;;;;;;;7.40;6.37;;;3.70;90.20;;;;;;5020928;28;20523;-77
2023/01/20 09:29:43;;;;;;;6.95;6.25;;;3.60;89.00;;;;;;5030052;28;20431;-77
2023/01/20 09:32:12;;;;;;;7.50;6.55;;;3.60;89.30;;;;;;5029363;28;20435;-77
2023/01/20 09:34:40;;;;;;;7.93;6.90;;;3.40;90.10;;;;;;5032977;28;20442;-77
2023/01/20 09:45:52;;;;;;;7.30;6.57;;;4.00;88.60;;;;;;5026705;28;20955;-77
2023/01/20 09:54:08;;;;;;;6.88;5.95;;;4.00;86.60;;;;;;5029517;28;20438;-76
2023/01/20 09:56:40;;;;;;;6.80;6.20;;;3.90;87.70;;;;;;5033752;28;21150;-76
2023/01/20 09:59:12;;;;;;;6.45;5.30;;;3.90;87.60;;;;;;5026454;28;20439;-76
2023/01/20 10:01:42;;;;;;;7.00;6.20;;;3.90;88.40;;;;;;5026235;28;20495;-78
2023/01/20 10:04:14;;;;;;;7.70;6.25;;;4.00;88.90;;;;;;5027013;28;20435;-75
2023/01/20 10:06:45;;;;;;;6.78;6.07;;;3.90;87.40;;;;;;5027441;28;20414;-78
2023/01/20 10:09:21;;;;;;;6.15;5.55;;;3.80;86.60;;;;;;5026687;28;20897;-78
2023/01/20 10:11:49;;;;;;;6.05;5.45;;;3.70;87.00;;;;;;5028528;28;20431;-78
2023/01/20 10:14:20;;;;;;;6.70;6.10;;;3.70;89.20;;;;;;5028878;28;20753;-78
2023/01/20 10:16:53;;;;;;;7.20;6.50;;;3.70;89.30;;;;;;5024929;28;20435;-78
2023/01/20 10:19:25;;;;;;;7.03;6.15;;;3.70;87.90;;;;;;5028297;28;21025;-77
2023/01/20 10:22:01;;;;;;;7.38;6.57;;;3.70;87.30;;;;;;5023271;28;20430;-78
2023/01/20 10:24:31;;;;;;;6.32;5.82;;;3.70;87.60;;;;;;5026672;28;20449;-78
2023/01/20 10:27:01;;;;;;;8.32;6.40;;;3.60;87.80;;;;;;5028349;28;20438;-78
2023/01/20 10:29:33;;;;;;;8.40;7.25;;;3.70;88.70;;;;;;5023069;28;20424;-65
2023/01/20 10:32:02;;;;;;;7.20;6.50;;;3.80;89.60;;;;;;5022215;28;20514;-65
2023/01/20 10:34:38;;;;;;;8.20;6.97;;;4.00;89.20;;;;;;5029194;28;20477;-76
2023/01/20 10:37:09;;;;;;;10.32;6.70;;;4.00;87.00;;;;;;5025735;28;20435;-78
2023/01/20 10:39:42;;;;;;;7.75;6.22;;;4.10;87.50;;;;;;5031412;28;20423;-76
2023/01/20 10:42:13;;;;;;;7.03;6.32;;;4.10;86.10;;;;;;5038774;28;20434;-77
2023/01/20 10:44:40;;;;;;;8.00;7.00;;;4.00;85.00;;;;;;5039604;28;20442;-77
2023/01/20 10:47:25;;;;;;;7.68;6.80;;;3.90;86.20;;;;;;5040333;28;20439;-78
2023/01/20 10:50:20;;;;;;;8.00;7.20;;;3.90;86.80;;;;;;5036823;28;20925;-77
2023/01/20 10:53:12;;;;;;;6.60;5.90;;;3.80;86.30;;;;;;5043962;28;20411;-77
2023/01/20 10:55:52;;;;;;;6.90;6.30;;;3.70;86.90;;;;;;5041045;28;20481;-76
2023/01/20 10:58:29;;;;;;;6.80;6.10;;;3.70;87.00;;;;;;5051648;28;20437;-77
2023/01/20 11:01:07;;;;;;;7.78;7.07;;;3.70;89.00;;;;;;5033093;28;20456;-79
2023/01/20 11:03:37;;;;;;;7.18;6.47;;;3.70;87.80;;;;;;5042233;28;20438;-76
2023/01/20 11:06:05;;;;;;;7.47;6.78;;;3.60;87.70;;;;;;5034602;28;20762;-78
2023/01/20 11:08:33;;;;;;;7.78;7.07;;;3.60;88.10;;;;;;5032979;28;20437;-76
2023/01/20 11:11:10;;;;;;;7.40;6.60;;;3.60;88.60;;;;;;5031527;28;20417;-77
2023/01/20 11:13:36;;;;;;;7.50;6.77;;;3.50;90.20;;;;;;5028932;28;20431;-78
2023/01/20 11:16:10;;;;;;;8.73;7.38;;;3.50;90.70;;;;;;5028442;28;20415;-76
2023/01/20 11:18:37;;;;;;;9.00;7.57;;;3.50;91.20;;;;;;5030677;28;20418;-76
2023/01/20 11:21:08;;;;;;;8.00;7.20;;;3.40;91.50;;;;;;5030810;28;20485;-76
2023/01/20 11:23:40;;;;;;;9.90;8.27;;;3.30;91.60;;;;;;5030884;28;20447;-78
2023/01/20 11:26:09;;;;;;;8.88;7.72;;;3.30;91.70;;;;;;5035520;28;20513;-79
2023/01/20 11:28:51;;;;;;;8.57;7.78;;;3.20;92.10;;;;;;5044615;28;20425;-79
2023/01/20 11:31:19;;;;;;;9.23;8.32;;;3.20;92.50;;;;;;5043283;28;20415;-78
2023/01/20 11:33:57;;;;;;;10.82;7.90;;;3.10;92.70;;;;;;5045101;28;20525;-79
2023/01/20 11:36:25;;;;;;;8.60;7.80;;;3.20;92.80;;;;;;5034273;28;20900;-79
2023/01/20 11:38:55;;;;;;;8.82;7.93;;;3.10;93.10;;;;;;5038646;28;20886;-76
2023/01/20 11:41:23;;;;;;;9.50;8.00;;;3.10;93.40;;;;;;5024566;28;20431;-79
2023/01/20 11:43:55;;;;;;;8.82;7.95;;;3.10;93.60;;;;;;5028280;28;20484;-79
2023/01/20 11:46:28;;;;;;;9.65;8.65;;;3.20;94.30;;;;;;5026346;28;20806;-77
2023/01/20 11:49:15;;;;;;;9.07;8.27;;;3.20;93.70;;;;;;5026303;28;20426;-80
2023/01/20 11:51:47;;;;;;;8.85;7.95;;;3.20;93.80;;;;;;5028568;28;20431;-77
2023/01/20 11:54:17;;;;;;;9.95;8.95;;;3.20;93.90;;;;;;5028961;28;20493;-80
2023/01/20 11:56:47;;;;;;;10.00;8.68;;;3.30;94.10;;;;;;5028630;28;20521;-77
2023/01/20 11:59:21;;;;;;;9.80;8.80;;;3.30;93.90;;;;;;5023849;28;20888;-80
2023/01/20 12:01:56;;;;;;;8.83;8.03;;;3.30;93.70;;;;;;5028683;28;20457;-80
2023/01/20 12:04:51;;;;;;;10.03;9.03;;;3.20;94.00;;;;;;5029634;28;20441;-79
2023/01/20 12:07:23;;;;;;;8.50;7.53;;;3.30;94.30;;;;;;5028302;28;20431;-79
2023/01/20 12:09:55;;;;;;;8.70;7.80;;;3.30;93.80;;;;;;5029070;28;20434;-77
2023/01/20 12:12:30;;;;;;;9.80;8.90;;;3.30;93.90;;;;;;5029408;28;20445;-77
2023/01/20 12:15:04;;;;;;;8.57;7.68;;;3.20;93.80;;;;;;5031668;28;20864;-79
2023/01/20 12:17:44;;;;;;;9.18;8.32;;;3.20;94.10;;;;;;5031720;28;20596;-78
2023/01/20 12:20:18;;;;;;;9.30;8.30;;;3.20;94.00;;;;;;5027356;28;20435;-77
2023/01/20 12:22:54;;;;;;;7.97;7.18;;;3.20;94.40;;;;;;5026724;28;20431;-77
2023/01/20 12:25:26;;;;;;;8.20;7.40;;;3.20;93.60;;;;;;5033483;28;20486;-78
2023/01/20 12:27:56;;;;;;;8.00;7.20;;;3.20;94.10;;;;;;5034043;28;20485;-79
2023/01/20 12:30:47;;;;;;;10.80;7.80;;;3.10;94.40;;;;;;5034750;28;20446;-79
2023/01/20 12:33:23;;;;;;;8.23;7.43;;;3.20;94.90;;;;;;5026379;28;20427;-78
2023/01/20 12:36:08;;;;;;;8.63;7.63;;;3.20;95.50;;;;;;5028596;28;20441;-77
2023/01/20 12:38:43;;;;;;;7.60;6.90;;;3.20;96.00;;;;;;5028701;28;20426;-79
2023/01/20 12:41:23;;;;;;;8.40;7.60;;;3.20;96.80;;;;;;5035510;28;20418;-78
2023/01/20 12:44:01;;;;;;;8.00;7.20;;;3.10;97.50;;;;;;5031391;28;20450;-79
2023/01/20 12:46:38;;;;;;;8.40;7.70;;;2.90;98.70;;;;;;5019336;28;20411;-79
2023/01/20 12:49:33;;;;;;;8.32;7.20;;;2.90;99.70;;;;;;5035255;28;20434;-78
2023/01/20 12:52:09;;;;;;;9.07;7.75;;;2.90;99.90;;;;;;5030658;28;20434;-78
2023/01/20 12:54:56;;;;;;;8.48;7.57;;;2.70;99.90;;;;;;5026108;28;20469;-76
2023/01/20 12:57:42;;;;;;;7.80;7.00;;;2.50;99.90;;;;;;5031629;28;20796;-76
2023/01/20 13:00:29;;;;;;;8.55;7.57;;;2.40;99.90;;;;;;5030774;28;20449;-78
2023/01/20 13:03:12;;;;;;;9.20;8.30;;;2.30;99.90;;;;;;5031761;28;20454;-76
2023/01/20 13:06:01;;;;;;;9.30;8.30;;;2.20;99.90;;;;;;5036873;28;20426;-77
2023/01/20 13:08:38;;;;;;;9.85;8.90;;;2.20;99.90;;;;;;5041959;28;20513;-79
2023/01/20 13:11:16;;;;;;;9.90;8.90;;;2.10;99.90;;;;;;5037851;28;20444;-78
2023/01/20 13:13:59;;;;;;;9.93;8.93;;;2.00;99.90;;;;;;5040863;28;20430;-79
2023/01/20 13:16:33;;;;;;;13.10;11.00;;;2.00;99.90;;;;;;5040140;28;20440;-79